sensor_id;sensor_type;location;lat;lon;timestamp;P1;durP1;ratioP1;P2;durP2;ratioP2
16101;SDS011;56411;52.964;10.540;2023-05-29T00:02:07;8.80;;;3.60;;
16101;SDS011;56411;52.964;10.540;2023-05-29T00:04:34;7.43;;;3.60;;
16101;SDS011;56411;52.964;10.540;2023-05-29T00:07:02;8.03;;;3.60;;
16101;SDS011;56411;52.964;10.540;2023-05-29T00:09:31;7.90;;;3.53;;
16101;SDS011;56411;52.964;10.540;2023-05-29T00:11:58;9.50;;;3.67;;
16101;SDS011;56411;52.964;10.540;2023-05-29T00:14:26;8.17;;;3.43;;
16101;SDS011;56411;52.964;10.540;2023-05-29T00:16:53;8.07;;;3.57;;
16101;SDS011;56411;52.964;10.540;2023-05-29T00:19:20;8.67;;;3.80;;
16101;SDS011;56411;52.964;10.540;2023-05-29T00:21:47;7.83;;;3.47;;
16101;SDS011;56411;52.964;10.540;2023-05-29T00:24:14;8.07;;;3.47;;
16101;SDS011;56411;52.964;10.540;2023-05-29T00:26:43;8.43;;;3.53;;
16101;SDS011;56411;52.964;10.540;2023-05-29T00:29:10;8.77;;;3.67;;
16101;SDS011;56411;52.964;10.540;2023-05-29T00:31:38;9.73;;;3.50;;
16101;SDS011;56411;52.964;10.540;2023-05-29T00:34:05;9.53;;;3.50;;
16101;SDS011;56411;52.964;10.540;2023-05-29T00:36:33;7.60;;;3.30;;
16101;SDS011;56411;52.964;10.540;2023-05-29T00:39:00;8.23;;;3.53;;
16101;SDS011;56411;52.964;10.540;2023-05-29T00:41:27;9.07;;;3.63;;
16101;SDS011;56411;52.964;10.540;2023-05-29T00:43:56;7.33;;;3.40;;
16101;SDS011;56411;52.964;10.540;2023-05-29T00:46:23;8.95;;;3.30;;
16101;SDS011;56411;52.964;10.540;2023-05-29T00:48:50;8.67;;;3.47;;
16101;SDS011;56411;52.964;10.540;2023-05-29T00:51:18;9.03;;;3.40;;
16101;SDS011;56411;52.964;10.540;2023-05-29T00:53:45;7.80;;;3.30;;
16101;SDS011;56411;52.964;10.540;2023-05-29T00:56:13;8.53;;;3.50;;
16101;SDS011;56411;52.964;10.540;2023-05-29T00:58:41;9.67;;;3.30;;
16101;SDS011;56411;52.964;10.540;2023-05-29T01:01:10;10.80;;;3.53;;
16101;SDS011;56411;52.964;10.540;2023-05-29T01:03:37;11.17;;;3.47;;
16101;SDS011;56411;52.964;10.540;2023-05-29T01:06:05;9.23;;;3.50;;
16101;SDS011;56411;52.964;10.540;2023-05-29T01:08:32;10.17;;;3.47;;
16101;SDS011;56411;52.964;10.540;2023-05-29T01:11:04;10.40;;;3.37;;
16101;SDS011;56411;52.964;10.540;2023-05-29T01:13:38;8.27;;;3.50;;
16101;SDS011;56411;52.964;10.540;2023-05-29T01:16:13;12.10;;;3.83;;
16101;SDS011;56411;52.964;10.540;2023-05-29T01:18:49;10.03;;;3.27;;
16101;SDS011;56411;52.964;10.540;2023-05-29T01:21:23;12.27;;;3.37;;
16101;SDS011;56411;52.964;10.540;2023-05-29T01:24:03;9.30;;;3.30;;
16101;SDS011;56411;52.964;10.540;2023-05-29T01:26:48;12.30;;;3.47;;
16101;SDS011;56411;52.964;10.540;2023-05-29T01:29:18;10.43;;;3.50;;
16101;SDS011;56411;52.964;10.540;2023-05-29T01:31:49;11.13;;;3.10;;
16101;SDS011;56411;52.964;10.540;2023-05-29T01:34:18;9.63;;;3.40;;
16101;SDS011;56411;52.964;10.540;2023-05-29T01:36:45;10.27;;;3.50;;
16101;SDS011;56411;52.964;10.540;2023-05-29T01:39:12;12.50;;;3.70;;
16101;SDS011;56411;52.964;10.540;2023-05-29T01:41:40;9.63;;;3.30;;
16101;SDS011;56411;52.964;10.540;2023-05-29T01:44:11;9.93;;;3.53;;
16101;SDS011;56411;52.964;10.540;2023-05-29T01:46:39;12.00;;;3.23;;
16101;SDS011;56411;52.964;10.540;2023-05-29T01:49:08;11.23;;;3.47;;
16101;SDS011;56411;52.964;10.540;2023-05-29T01:51:36;10.90;;;3.27;;
16101;SDS011;56411;52.964;10.540;2023-05-29T01:54:03;12.80;;;3.20;;
16101;SDS011;56411;52.964;10.540;2023-05-29T01:56:30;14.13;;;3.97;;
16101;SDS011;56411;52.964;10.540;2023-05-29T01:58:58;16.80;;;3.70;;
16101;SDS011;56411;52.964;10.540;2023-05-29T02:01:26;12.60;;;3.50;;
16101;SDS011;56411;52.964;10.540;2023-05-29T02:03:54;11.83;;;3.53;;
16101;SDS011;56411;52.964;10.540;2023-05-29T02:06:21;11.80;;;3.57;;
16101;SDS011;56411;52.964;10.540;2023-05-29T02:08:48;11.50;;;3.50;;
16101;SDS011;56411;52.964;10.540;2023-05-29T02:11:15;12.87;;;3.53;;
16101;SDS011;56411;52.964;10.540;2023-05-29T02:13:42;11.60;;;3.43;;
16101;SDS011;56411;52.964;10.540;2023-05-29T02:16:09;13.07;;;3.80;;
16101;SDS011;56411;52.964;10.540;2023-05-29T02:18:39;12.20;;;3.23;;
16101;SDS011;56411;52.964;10.540;2023-05-29T02:21:06;13.50;;;3.53;;
16101;SDS011;56411;52.964;10.540;2023-05-29T02:23:33;14.33;;;3.40;;
16101;SDS011;56411;52.964;10.540;2023-05-29T02:26:00;14.47;;;3.70;;
16101;SDS011;56411;52.964;10.540;2023-05-29T02:28:27;15.37;;;3.90;;
16101;SDS011;56411;52.964;10.540;2023-05-29T02:30:54;12.63;;;3.80;;
16101;SDS011;56411;52.964;10.540;2023-05-29T02:33:21;13.20;;;3.80;;
16101;SDS011;56411;52.964;10.540;2023-05-29T02:35:49;12.37;;;3.87;;
16101;SDS011;56411;52.964;10.540;2023-05-29T02:38:16;12.27;;;3.87;;
16101;SDS011;56411;52.964;10.540;2023-05-29T02:40:44;12.47;;;3.43;;
16101;SDS011;56411;52.964;10.540;2023-05-29T02:43:12;14.60;;;3.70;;
16101;SDS011;56411;52.964;10.540;2023-05-29T02:45:39;12.47;;;3.80;;
16101;SDS011;56411;52.964;10.540;2023-05-29T02:48:06;9.93;;;3.40;;
16101;SDS011;56411;52.964;10.540;2023-05-29T02:50:33;10.60;;;3.17;;
16101;SDS011;56411;52.964;10.540;2023-05-29T02:53:02;11.80;;;3.63;;
16101;SDS011;56411;52.964;10.540;2023-05-29T02:55:29;15.30;;;3.90;;
16101;SDS011;56411;52.964;10.540;2023-05-29T02:58:00;12.27;;;4.00;;
16101;SDS011;56411;52.964;10.540;2023-05-29T03:00:28;13.37;;;3.80;;
16101;SDS011;56411;52.964;10.540;2023-05-29T03:02:55;12.50;;;3.97;;
16101;SDS011;56411;52.964;10.540;2023-05-29T03:05:22;9.73;;;3.50;;
16101;SDS011;56411;52.964;10.540;2023-05-29T03:07:49;11.90;;;3.67;;
16101;SDS011;56411;52.964;10.540;2023-05-29T03:10:18;12.50;;;3.67;;
16101;SDS011;56411;52.964;10.540;2023-05-29T03:12:45;11.27;;;3.33;;
16101;SDS011;56411;52.964;10.540;2023-05-29T03:15:12;15.30;;;4.27;;
16101;SDS011;56411;52.964;10.540;2023-05-29T03:17:40;11.60;;;3.30;;
16101;SDS011;56411;52.964;10.540;2023-05-29T03:20:08;13.90;;;3.97;;
16101;SDS011;56411;52.964;10.540;2023-05-29T03:22:36;13.83;;;3.20;;
16101;SDS011;56411;52.964;10.540;2023-05-29T03:25:03;12.90;;;3.50;;
16101;SDS011;56411;52.964;10.540;2023-05-29T03:27:32;17.50;;;4.03;;
16101;SDS011;56411;52.964;10.540;2023-05-29T03:29:59;13.40;;;3.90;;
16101;SDS011;56411;52.964;10.540;2023-05-29T03:32:26;16.67;;;3.60;;
16101;SDS011;56411;52.964;10.540;2023-05-29T03:34:53;13.70;;;3.50;;
16101;SDS011;56411;52.964;10.540;2023-05-29T03:37:22;11.47;;;3.43;;
16101;SDS011;56411;52.964;10.540;2023-05-29T03:39:49;12.70;;;3.53;;
16101;SDS011;56411;52.964;10.540;2023-05-29T03:42:16;13.30;;;4.30;;
16101;SDS011;56411;52.964;10.540;2023-05-29T03:44:45;14.60;;;3.63;;
16101;SDS011;56411;52.964;10.540;2023-05-29T03:47:12;14.03;;;3.40;;
16101;SDS011;56411;52.964;10.540;2023-05-29T03:49:39;16.57;;;3.43;;
16101;SDS011;56411;52.964;10.540;2023-05-29T03:52:06;16.23;;;3.63;;
16101;SDS011;56411;52.964;10.540;2023-05-29T03:54:33;15.73;;;3.57;;
16101;SDS011;56411;52.964;10.540;2023-05-29T03:57:00;14.53;;;3.57;;
16101;SDS011;56411;52.964;10.540;2023-05-29T03:59:27;11.47;;;3.30;;
16101;SDS011;56411;52.964;10.540;2023-05-29T04:01:55;15.20;;;3.80;;
16101;SDS011;56411;52.964;10.540;2023-05-29T04:04:22;15.63;;;4.43;;
16101;SDS011;56411;52.964;10.540;2023-05-29T04:06:49;10.23;;;2.97;;
16101;SDS011;56411;52.964;10.540;2023-05-29T04:09:16;11.63;;;3.10;;
16101;SDS011;56411;52.964;10.540;2023-05-29T04:11:43;10.73;;;3.10;;
16101;SDS011;56411;52.964;10.540;2023-05-29T04:14:11;14.07;;;3.27;;
16101;SDS011;56411;52.964;10.540;2023-05-29T04:16:38;13.07;;;3.30;;
16101;SDS011;56411;52.964;10.540;2023-05-29T04:19:06;15.37;;;3.20;;
16101;SDS011;56411;52.964;10.540;2023-05-29T04:21:33;12.23;;;3.17;;
16101;SDS011;56411;52.964;10.540;2023-05-29T04:24:00;13.37;;;3.33;;
16101;SDS011;56411;52.964;10.540;2023-05-29T04:26:27;12.60;;;3.53;;
16101;SDS011;56411;52.964;10.540;2023-05-29T04:28:57;12.43;;;3.13;;
16101;SDS011;56411;52.964;10.540;2023-05-29T04:31:24;13.20;;;3.60;;
16101;SDS011;56411;52.964;10.540;2023-05-29T04:33:52;14.50;;;3.53;;
16101;SDS011;56411;52.964;10.540;2023-05-29T04:36:22;13.87;;;3.30;;
16101;SDS011;56411;52.964;10.540;2023-05-29T04:38:51;16.93;;;3.70;;
16101;SDS011;56411;52.964;10.540;2023-05-29T04:41:18;14.53;;;3.70;;
16101;SDS011;56411;52.964;10.540;2023-05-29T04:43:48;13.40;;;3.60;;
16101;SDS011;56411;52.964;10.540;2023-05-29T04:46:17;15.20;;;3.27;;
16101;SDS011;56411;52.964;10.540;2023-05-29T04:48:44;12.70;;;3.37;;
16101;SDS011;56411;52.964;10.540;2023-05-29T04:51:11;15.97;;;3.10;;
16101;SDS011;56411;52.964;10.540;2023-05-29T04:53:40;18.07;;;3.30;;
16101;SDS011;56411;52.964;10.540;2023-05-29T04:56:07;10.63;;;2.87;;
16101;SDS011;56411;52.964;10.540;2023-05-29T04:58:34;14.00;;;3.93;;
16101;SDS011;56411;52.964;10.540;2023-05-29T05:01:01;12.57;;;3.87;;
16101;SDS011;56411;52.964;10.540;2023-05-29T05:03:28;14.33;;;3.10;;
16101;SDS011;56411;52.964;10.540;2023-05-29T05:05:58;15.53;;;3.47;;
16101;SDS011;56411;52.964;10.540;2023-05-29T05:08:27;12.00;;;3.10;;
16101;SDS011;56411;52.964;10.540;2023-05-29T05:10:56;17.23;;;4.30;;
16101;SDS011;56411;52.964;10.540;2023-05-29T05:13:23;14.03;;;3.37;;
16101;SDS011;56411;52.964;10.540;2023-05-29T05:15:50;16.57;;;3.87;;
16101;SDS011;56411;52.964;10.540;2023-05-29T05:18:18;13.97;;;4.03;;
16101;SDS011;56411;52.964;10.540;2023-05-29T05:20:45;17.87;;;3.67;;
16101;SDS011;56411;52.964;10.540;2023-05-29T05:23:12;15.53;;;3.40;;
16101;SDS011;56411;52.964;10.540;2023-05-29T05:25:39;12.87;;;3.40;;
16101;SDS011;56411;52.964;10.540;2023-05-29T05:28:07;16.40;;;3.60;;
16101;SDS011;56411;52.964;10.540;2023-05-29T05:30:35;16.27;;;3.43;;
16101;SDS011;56411;52.964;10.540;2023-05-29T05:33:01;13.80;;;3.20;;
16101;SDS011;56411;52.964;10.540;2023-05-29T05:35:29;14.17;;;3.50;;
16101;SDS011;56411;52.964;10.540;2023-05-29T05:37:56;13.17;;;3.60;;
16101;SDS011;56411;52.964;10.540;2023-05-29T05:40:24;17.57;;;4.10;;
16101;SDS011;56411;52.964;10.540;2023-05-29T05:42:51;20.43;;;3.97;;
16101;SDS011;56411;52.964;10.540;2023-05-29T05:45:22;15.90;;;3.50;;
16101;SDS011;56411;52.964;10.540;2023-05-29T05:47:49;16.83;;;3.90;;
16101;SDS011;56411;52.964;10.540;2023-05-29T05:50:16;17.30;;;3.80;;
16101;SDS011;56411;52.964;10.540;2023-05-29T05:52:43;15.13;;;3.60;;
16101;SDS011;56411;52.964;10.540;2023-05-29T05:55:10;12.50;;;3.47;;
16101;SDS011;56411;52.964;10.540;2023-05-29T05:57:37;17.13;;;4.90;;
16101;SDS011;56411;52.964;10.540;2023-05-29T06:00:04;15.73;;;3.73;;
16101;SDS011;56411;52.964;10.540;2023-05-29T06:02:37;17.67;;;3.47;;
16101;SDS011;56411;52.964;10.540;2023-05-29T06:05:06;15.33;;;3.50;;
16101;SDS011;56411;52.964;10.540;2023-05-29T06:07:34;16.27;;;4.37;;
16101;SDS011;56411;52.964;10.540;2023-05-29T06:10:01;16.63;;;3.60;;
16101;SDS011;56411;52.964;10.540;2023-05-29T06:12:29;13.87;;;3.70;;
16101;SDS011;56411;52.964;10.540;2023-05-29T06:14:56;16.53;;;3.60;;
16101;SDS011;56411;52.964;10.540;2023-05-29T06:17:23;17.97;;;4.50;;
16101;SDS011;56411;52.964;10.540;2023-05-29T06:19:54;13.90;;;3.00;;
16101;SDS011;56411;52.964;10.540;2023-05-29T06:22:21;17.00;;;3.17;;
16101;SDS011;56411;52.964;10.540;2023-05-29T06:24:49;18.53;;;4.70;;
16101;SDS011;56411;52.964;10.540;2023-05-29T06:27:16;12.97;;;3.53;;
16101;SDS011;56411;52.964;10.540;2023-05-29T06:29:46;17.67;;;2.90;;
16101;SDS011;56411;52.964;10.540;2023-05-29T06:32:15;16.53;;;3.50;;
16101;SDS011;56411;52.964;10.540;2023-05-29T06:34:42;13.77;;;3.70;;
16101;SDS011;56411;52.964;10.540;2023-05-29T06:37:10;16.13;;;3.53;;
16101;SDS011;56411;52.964;10.540;2023-05-29T06:39:37;19.17;;;3.93;;
16101;SDS011;56411;52.964;10.540;2023-05-29T06:42:07;15.60;;;3.80;;
16101;SDS011;56411;52.964;10.540;2023-05-29T06:44:34;18.10;;;3.90;;
16101;SDS011;56411;52.964;10.540;2023-05-29T06:47:01;18.53;;;3.90;;
16101;SDS011;56411;52.964;10.540;2023-05-29T06:49:28;18.77;;;3.83;;
16101;SDS011;56411;52.964;10.540;2023-05-29T06:51:55;16.90;;;3.83;;
16101;SDS011;56411;52.964;10.540;2023-05-29T06:54:23;14.60;;;3.40;;
16101;SDS011;56411;52.964;10.540;2023-05-29T06:56:50;14.37;;;3.67;;
16101;SDS011;56411;52.964;10.540;2023-05-29T06:59:18;14.30;;;3.67;;
16101;SDS011;56411;52.964;10.540;2023-05-29T07:01:46;16.00;;;4.27;;
16101;SDS011;56411;52.964;10.540;2023-05-29T07:04:13;16.97;;;5.23;;
16101;SDS011;56411;52.964;10.540;2023-05-29T07:06:40;17.70;;;3.87;;
16101;SDS011;56411;52.964;10.540;2023-05-29T07:09:07;17.90;;;3.63;;
16101;SDS011;56411;52.964;10.540;2023-05-29T07:11:35;14.87;;;3.50;;
16101;SDS011;56411;52.964;10.540;2023-05-29T07:14:03;14.57;;;3.50;;
16101;SDS011;56411;52.964;10.540;2023-05-29T07:16:30;16.42;;;3.58;;
16101;SDS011;56411;52.964;10.540;2023-05-29T07:18:57;12.60;;;3.50;;
16101;SDS011;56411;52.964;10.540;2023-05-29T07:21:24;16.80;;;3.77;;
16101;SDS011;56411;52.964;10.540;2023-05-29T07:23:51;17.70;;;3.60;;
16101;SDS011;56411;52.964;10.540;2023-05-29T07:26:21;16.60;;;3.80;;
16101;SDS011;56411;52.964;10.540;2023-05-29T07:28:49;19.37;;;4.10;;
16101;SDS011;56411;52.964;10.540;2023-05-29T07:31:17;16.40;;;3.40;;
16101;SDS011;56411;52.964;10.540;2023-05-29T07:33:44;14.90;;;3.93;;
16101;SDS011;56411;52.964;10.540;2023-05-29T07:36:11;16.33;;;3.73;;
16101;SDS011;56411;52.964;10.540;2023-05-29T07:38:38;15.50;;;3.60;;
16101;SDS011;56411;52.964;10.540;2023-05-29T07:41:05;17.93;;;3.70;;
16101;SDS011;56411;52.964;10.540;2023-05-29T07:43:32;12.47;;;3.20;;
16101;SDS011;56411;52.964;10.540;2023-05-29T07:46:00;13.50;;;3.58;;
16101;SDS011;56411;52.964;10.540;2023-05-29T07:48:28;14.43;;;3.53;;
16101;SDS011;56411;52.964;10.540;2023-05-29T07:50:55;15.45;;;3.80;;
16101;SDS011;56411;52.964;10.540;2023-05-29T07:53:23;18.07;;;3.80;;
16101;SDS011;56411;52.964;10.540;2023-05-29T07:55:50;17.37;;;3.57;;
16101;SDS011;56411;52.964;10.540;2023-05-29T07:58:17;15.60;;;3.73;;
16101;SDS011;56411;52.964;10.540;2023-05-29T08:00:45;16.10;;;3.27;;
16101;SDS011;56411;52.964;10.540;2023-05-29T08:03:15;15.73;;;4.28;;
16101;SDS011;56411;52.964;10.540;2023-05-29T08:05:42;14.67;;;3.50;;
16101;SDS011;56411;52.964;10.540;2023-05-29T08:08:09;14.97;;;3.67;;
16101;SDS011;56411;52.964;10.540;2023-05-29T08:10:37;14.37;;;3.40;;
16101;SDS011;56411;52.964;10.540;2023-05-29T08:13:04;11.97;;;3.20;;
16101;SDS011;56411;52.964;10.540;2023-05-29T08:15:31;16.57;;;3.90;;
16101;SDS011;56411;52.964;10.540;2023-05-29T08:17:59;18.17;;;3.92;;
16101;SDS011;56411;52.964;10.540;2023-05-29T08:20:27;17.30;;;3.63;;
16101;SDS011;56411;52.964;10.540;2023-05-29T08:22:54;13.10;;;3.10;;
16101;SDS011;56411;52.964;10.540;2023-05-29T08:25:21;16.83;;;4.33;;
16101;SDS011;56411;52.964;10.540;2023-05-29T08:27:48;15.87;;;3.20;;
16101;SDS011;56411;52.964;10.540;2023-05-29T08:30:15;13.60;;;3.80;;
16101;SDS011;56411;52.964;10.540;2023-05-29T08:32:42;12.75;;;3.60;;
16101;SDS011;56411;52.964;10.540;2023-05-29T08:35:09;14.15;;;3.38;;
16101;SDS011;56411;52.964;10.540;2023-05-29T08:37:38;13.35;;;3.20;;
16101;SDS011;56411;52.964;10.540;2023-05-29T08:40:05;13.27;;;2.97;;
16101;SDS011;56411;52.964;10.540;2023-05-29T08:42:36;13.45;;;3.25;;
16101;SDS011;56411;52.964;10.540;2023-05-29T08:45:06;16.75;;;3.15;;
16101;SDS011;56411;52.964;10.540;2023-05-29T08:47:36;14.23;;;3.30;;
16101;SDS011;56411;52.964;10.540;2023-05-29T08:50:07;14.15;;;3.53;;
16101;SDS011;56411;52.964;10.540;2023-05-29T08:52:34;15.07;;;3.90;;
16101;SDS011;56411;52.964;10.540;2023-05-29T08:55:03;12.27;;;3.30;;
16101;SDS011;56411;52.964;10.540;2023-05-29T08:57:31;16.77;;;3.08;;
16101;SDS011;56411;52.964;10.540;2023-05-29T09:00:01;14.82;;;3.53;;
16101;SDS011;56411;52.964;10.540;2023-05-29T09:02:33;13.73;;;2.97;;
16101;SDS011;56411;52.964;10.540;2023-05-29T09:05:02;11.48;;;3.00;;
16101;SDS011;56411;52.964;10.540;2023-05-29T09:07:29;12.38;;;3.00;;
16101;SDS011;56411;52.964;10.540;2023-05-29T09:09:56;13.38;;;3.70;;
16101;SDS011;56411;52.964;10.540;2023-05-29T09:12:25;15.27;;;3.63;;
16101;SDS011;56411;52.964;10.540;2023-05-29T09:14:52;14.68;;;3.85;;
16101;SDS011;56411;52.964;10.540;2023-05-29T09:17:19;12.43;;;3.70;;
16101;SDS011;56411;52.964;10.540;2023-05-29T09:19:47;18.25;;;3.97;;
16101;SDS011;56411;52.964;10.540;2023-05-29T09:22:14;18.05;;;3.55;;
16101;SDS011;56411;52.964;10.540;2023-05-29T09:24:42;13.35;;;3.25;;
16101;SDS011;56411;52.964;10.540;2023-05-29T09:27:12;13.32;;;3.47;;
16101;SDS011;56411;52.964;10.540;2023-05-29T09:29:42;13.27;;;3.17;;
16101;SDS011;56411;52.964;10.540;2023-05-29T09:32:11;14.85;;;3.70;;
16101;SDS011;56411;52.964;10.540;2023-05-29T09:34:39;14.73;;;3.72;;
16101;SDS011;56411;52.964;10.540;2023-05-29T09:37:07;16.08;;;4.20;;
16101;SDS011;56411;52.964;10.540;2023-05-29T09:39:44;15.48;;;3.53;;
16101;SDS011;56411;52.964;10.540;2023-05-29T09:42:12;16.75;;;3.85;;
16101;SDS011;56411;52.964;10.540;2023-05-29T09:44:41;11.70;;;3.22;;
16101;SDS011;56411;52.964;10.540;2023-05-29T09:47:09;13.43;;;3.30;;
16101;SDS011;56411;52.964;10.540;2023-05-29T09:49:40;13.75;;;3.42;;
16101;SDS011;56411;52.964;10.540;2023-05-29T09:52:08;13.98;;;3.60;;
16101;SDS011;56411;52.964;10.540;2023-05-29T09:54:39;15.50;;;4.20;;
16101;SDS011;56411;52.964;10.540;2023-05-29T09:57:10;14.75;;;3.63;;
16101;SDS011;56411;52.964;10.540;2023-05-29T09:59:38;13.05;;;3.42;;
16101;SDS011;56411;52.964;10.540;2023-05-29T10:02:09;14.13;;;3.55;;
16101;SDS011;56411;52.964;10.540;2023-05-29T10:04:37;14.45;;;3.47;;
16101;SDS011;56411;52.964;10.540;2023-05-29T10:07:07;13.77;;;3.65;;
16101;SDS011;56411;52.964;10.540;2023-05-29T10:09:37;13.32;;;3.50;;
16101;SDS011;56411;52.964;10.540;2023-05-29T10:12:08;14.50;;;3.75;;
16101;SDS011;56411;52.964;10.540;2023-05-29T10:14:38;12.75;;;3.38;;
16101;SDS011;56411;52.964;10.540;2023-05-29T10:17:08;9.30;;;2.92;;
16101;SDS011;56411;52.964;10.540;2023-05-29T10:19:38;13.15;;;3.22;;
16101;SDS011;56411;52.964;10.540;2023-05-29T10:22:05;12.38;;;3.42;;
16101;SDS011;56411;52.964;10.540;2023-05-29T10:24:33;12.20;;;3.20;;
16101;SDS011;56411;52.964;10.540;2023-05-29T10:27:01;11.45;;;2.92;;
16101;SDS011;56411;52.964;10.540;2023-05-29T10:29:31;9.60;;;2.83;;
16101;SDS011;56411;52.964;10.540;2023-05-29T10:32:18;11.27;;;3.00;;
16101;SDS011;56411;52.964;10.540;2023-05-29T10:34:50;13.15;;;3.30;;
16101;SDS011;56411;52.964;10.540;2023-05-29T10:37:31;9.43;;;2.58;;
16101;SDS011;56411;52.964;10.540;2023-05-29T10:40:03;9.52;;;3.00;;
16101;SDS011;56411;52.964;10.540;2023-05-29T10:42:41;12.57;;;3.03;;
16101;SDS011;56411;52.964;10.540;2023-05-29T10:45:11;10.80;;;2.88;;
16101;SDS011;56411;52.964;10.540;2023-05-29T10:51:05;13.77;;;3.38;;
16101;SDS011;56411;52.964;10.540;2023-05-29T10:53:33;11.75;;;2.95;;
16101;SDS011;56411;52.964;10.540;2023-05-29T10:56:05;12.63;;;3.20;;
16101;SDS011;56411;52.964;10.540;2023-05-29T10:58:36;11.30;;;3.05;;
16101;SDS011;56411;52.964;10.540;2023-05-29T11:01:03;12.80;;;3.40;;
16101;SDS011;56411;52.964;10.540;2023-05-29T11:03:31;13.93;;;3.08;;
16101;SDS011;56411;52.964;10.540;2023-05-29T11:06:00;10.05;;;3.35;;
16101;SDS011;56411;52.964;10.540;2023-05-29T11:08:32;11.82;;;3.03;;
16101;SDS011;56411;52.964;10.540;2023-05-29T11:11:02;11.98;;;3.35;;
16101;SDS011;56411;52.964;10.540;2023-05-29T11:13:31;10.45;;;3.00;;
16101;SDS011;56411;52.964;10.540;2023-05-29T11:19:04;10.63;;;3.15;;
16101;SDS011;56411;52.964;10.540;2023-05-29T11:21:34;16.33;;;3.63;;
16101;SDS011;56411;52.964;10.540;2023-05-29T11:24:14;12.57;;;3.13;;
16101;SDS011;56411;52.964;10.540;2023-05-29T11:26:47;9.63;;;2.78;;
16101;SDS011;56411;52.964;10.540;2023-05-29T11:29:18;10.40;;;2.80;;
16101;SDS011;56411;52.964;10.540;2023-05-29T11:31:48;11.40;;;3.25;;
16101;SDS011;56411;52.964;10.540;2023-05-29T11:34:20;8.80;;;2.75;;
16101;SDS011;56411;52.964;10.540;2023-05-29T11:36:50;10.98;;;2.95;;
16101;SDS011;56411;52.964;10.540;2023-05-29T11:39:18;9.48;;;3.05;;
16101;SDS011;56411;52.964;10.540;2023-05-29T11:41:49;11.80;;;3.30;;
16101;SDS011;56411;52.964;10.540;2023-05-29T11:44:17;10.00;;;2.78;;
16101;SDS011;56411;52.964;10.540;2023-05-29T11:46:44;13.25;;;3.42;;
16101;SDS011;56411;52.964;10.540;2023-05-29T11:49:11;10.43;;;2.88;;
16101;SDS011;56411;52.964;10.540;2023-05-29T11:51:41;12.20;;;3.28;;
16101;SDS011;56411;52.964;10.540;2023-05-29T11:54:12;8.50;;;2.92;;
16101;SDS011;56411;52.964;10.540;2023-05-29T11:56:39;9.25;;;2.60;;
16101;SDS011;56411;52.964;10.540;2023-05-29T11:59:10;10.98;;;2.95;;
16101;SDS011;56411;52.964;10.540;2023-05-29T12:01:38;12.48;;;3.30;;
16101;SDS011;56411;52.964;10.540;2023-05-29T12:04:13;11.57;;;3.20;;
16101;SDS011;56411;52.964;10.540;2023-05-29T12:06:41;10.57;;;2.90;;
16101;SDS011;56411;52.964;10.540;2023-05-29T12:09:09;11.93;;;3.50;;
16101;SDS011;56411;52.964;10.540;2023-05-29T12:11:52;9.75;;;2.75;;
16101;SDS011;56411;52.964;10.540;2023-05-29T12:14:19;8.32;;;2.60;;
16101;SDS011;56411;52.964;10.540;2023-05-29T12:16:46;12.70;;;3.15;;
16101;SDS011;56411;52.964;10.540;2023-05-29T12:19:14;12.63;;;3.15;;
16101;SDS011;56411;52.964;10.540;2023-05-29T12:21:41;11.60;;;3.67;;
16101;SDS011;56411;52.964;10.540;2023-05-29T12:24:09;10.73;;;2.97;;
16101;SDS011;56411;52.964;10.540;2023-05-29T12:26:37;9.55;;;2.83;;
16101;SDS011;56411;52.964;10.540;2023-05-29T12:29:04;10.30;;;3.15;;
16101;SDS011;56411;52.964;10.540;2023-05-29T12:31:32;12.23;;;3.00;;
16101;SDS011;56411;52.964;10.540;2023-05-29T12:34:00;8.82;;;2.78;;
16101;SDS011;56411;52.964;10.540;2023-05-29T12:36:27;10.93;;;2.90;;
16101;SDS011;56411;52.964;10.540;2023-05-29T12:38:56;10.48;;;2.67;;
16101;SDS011;56411;52.964;10.540;2023-05-29T12:41:26;9.10;;;2.80;;
16101;SDS011;56411;52.964;10.540;2023-05-29T12:43:55;10.38;;;2.40;;
16101;SDS011;56411;52.964;10.540;2023-05-29T12:46:24;8.45;;;2.60;;
16101;SDS011;56411;52.964;10.540;2023-05-29T12:48:52;9.50;;;2.63;;
16101;SDS011;56411;52.964;10.540;2023-05-29T12:51:23;11.02;;;2.90;;
16101;SDS011;56411;52.964;10.540;2023-05-29T12:53:50;11.43;;;3.40;;
16101;SDS011;56411;52.964;10.540;2023-05-29T12:56:20;10.60;;;3.03;;
16101;SDS011;56411;52.964;10.540;2023-05-29T12:58:49;11.48;;;3.15;;
16101;SDS011;56411;52.964;10.540;2023-05-29T13:01:19;13.82;;;3.30;;
16101;SDS011;56411;52.964;10.540;2023-05-29T13:03:47;9.95;;;3.40;;
16101;SDS011;56411;52.964;10.540;2023-05-29T13:06:14;10.07;;;2.97;;
16101;SDS011;56411;52.964;10.540;2023-05-29T13:08:41;8.70;;;2.53;;
16101;SDS011;56411;52.964;10.540;2023-05-29T13:11:08;10.05;;;2.72;;
16101;SDS011;56411;52.964;10.540;2023-05-29T13:13:36;9.65;;;3.17;;
16101;SDS011;56411;52.964;10.540;2023-05-29T13:16:03;11.15;;;3.22;;
16101;SDS011;56411;52.964;10.540;2023-05-29T13:18:32;11.10;;;3.22;;
16101;SDS011;56411;52.964;10.540;2023-05-29T13:20:59;11.60;;;3.40;;
16101;SDS011;56411;52.964;10.540;2023-05-29T13:23:26;9.07;;;2.90;;
16101;SDS011;56411;52.964;10.540;2023-05-29T13:25:54;10.43;;;2.97;;
16101;SDS011;56411;52.964;10.540;2023-05-29T13:28:20;9.60;;;2.90;;
16101;SDS011;56411;52.964;10.540;2023-05-29T13:30:49;9.57;;;3.17;;
16101;SDS011;56411;52.964;10.540;2023-05-29T13:33:16;11.52;;;3.42;;
16101;SDS011;56411;52.964;10.540;2023-05-29T13:35:45;10.77;;;3.38;;
16101;SDS011;56411;52.964;10.540;2023-05-29T13:38:12;8.32;;;2.70;;
16101;SDS011;56411;52.964;10.540;2023-05-29T13:40:40;10.93;;;3.10;;
16101;SDS011;56411;52.964;10.540;2023-05-29T13:43:07;10.02;;;3.17;;
16101;SDS011;56411;52.964;10.540;2023-05-29T13:45:34;12.10;;;3.20;;
16101;SDS011;56411;52.964;10.540;2023-05-29T13:48:01;9.50;;;2.90;;
16101;SDS011;56411;52.964;10.540;2023-05-29T13:50:28;9.88;;;3.50;;
16101;SDS011;56411;52.964;10.540;2023-05-29T13:52:57;12.50;;;3.60;;
16101;SDS011;56411;52.964;10.540;2023-05-29T13:55:24;9.55;;;2.90;;
16101;SDS011;56411;52.964;10.540;2023-05-29T13:57:51;10.75;;;3.00;;
16101;SDS011;56411;52.964;10.540;2023-05-29T14:00:23;11.13;;;3.20;;
16101;SDS011;56411;52.964;10.540;2023-05-29T14:02:50;10.23;;;3.10;;
16101;SDS011;56411;52.964;10.540;2023-05-29T14:05:17;9.75;;;3.00;;
16101;SDS011;56411;52.964;10.540;2023-05-29T14:07:44;8.50;;;2.78;;
16101;SDS011;56411;52.964;10.540;2023-05-29T14:10:12;9.05;;;2.63;;
16101;SDS011;56411;52.964;10.540;2023-05-29T14:12:39;9.25;;;2.90;;
16101;SDS011;56411;52.964;10.540;2023-05-29T14:15:07;11.07;;;3.55;;
16101;SDS011;56411;52.964;10.540;2023-05-29T14:17:35;10.50;;;2.90;;
16101;SDS011;56411;52.964;10.540;2023-05-29T14:20:05;11.43;;;3.35;;
16101;SDS011;56411;52.964;10.540;2023-05-29T14:22:33;9.57;;;3.20;;
16101;SDS011;56411;52.964;10.540;2023-05-29T14:25:02;11.15;;;3.13;;
16101;SDS011;56411;52.964;10.540;2023-05-29T14:27:31;10.52;;;2.88;;
16101;SDS011;56411;52.964;10.540;2023-05-29T14:29:58;11.35;;;2.97;;
16101;SDS011;56411;52.964;10.540;2023-05-29T14:32:26;9.93;;;2.78;;
16101;SDS011;56411;52.964;10.540;2023-05-29T14:34:53;12.30;;;3.40;;
16101;SDS011;56411;52.964;10.540;2023-05-29T14:37:22;10.27;;;3.15;;